sensor_id;sensor_type;location;lat;lon;timestamp;temperature;humidity
8643;DHT22;4359;49.358;11.256;2023-06-01T00:00:35;9.10;99.90
8643;DHT22;4359;49.358;11.256;2023-06-01T00:03:03;9.00;99.90
8643;DHT22;4359;49.358;11.256;2023-06-01T00:05:29;8.90;99.90
8643;DHT22;4359;49.358;11.256;2023-06-01T00:07:55;8.90;99.90
8643;DHT22;4359;49.358;11.256;2023-06-01T00:10:20;8.80;99.90
8643;DHT22;4359;49.358;11.256;2023-06-01T00:12:46;8.70;99.90
8643;DHT22;4359;49.358;11.256;2023-06-01T00:15:12;8.70;99.90
8643;DHT22;4359;49.358;11.256;2023-06-01T00:17:37;8.60;99.90
8643;DHT22;4359;49.358;11.256;2023-06-01T00:20:04;8.60;99.90
8643;DHT22;4359;49.358;11.256;2023-06-01T00:22:34;8.60;99.90
8643;DHT22;4359;49.358;11.256;2023-06-01T00:25:07;8.50;99.90
8643;DHT22;4359;49.358;11.256;2023-06-01T00:27:33;8.50;99.90
8643;DHT22;4359;49.358;11.256;2023-06-01T00:29:59;8.50;99.90
8643;DHT22;4359;49.358;11.256;2023-06-01T00:32:24;8.40;99.90
8643;DHT22;4359;49.358;11.256;2023-06-01T00:34:50;8.40;99.90
8643;DHT22;4359;49.358;11.256;2023-06-01T00:37:15;8.40;99.90
8643;DHT22;4359;49.358;11.256;2023-06-01T00:39:41;8.30;99.90
8643;DHT22;4359;49.358;11.256;2023-06-01T00:42:07;8.30;99.90
8643;DHT22;4359;49.358;11.256;2023-06-01T00:44:33;8.30;99.90
8643;DHT22;4359;49.358;11.256;2023-06-01T00:46:58;8.30;99.90
8643;DHT22;4359;49.358;11.256;2023-06-01T00:49:25;8.30;99.90
8643;DHT22;4359;49.358;11.256;2023-06-01T00:51:52;8.20;99.90
8643;DHT22;4359;49.358;11.256;2023-06-01T00:54:18;8.20;99.90
8643;DHT22;4359;49.358;11.256;2023-06-01T00:56:45;8.20;99.90
8643;DHT22;4359;49.358;11.256;2023-06-01T00:59:12;8.10;99.90
8643;DHT22;4359;49.358;11.256;2023-06-01T01:01:38;8.00;99.90
8643;DHT22;4359;49.358;11.256;2023-06-01T01:04:04;8.00;99.90
8643;DHT22;4359;49.358;11.256;2023-06-01T01:07:02;7.90;99.90
8643;DHT22;4359;49.358;11.256;2023-06-01T01:09:41;7.80;99.90
8643;DHT22;4359;49.358;11.256;2023-06-01T01:12:26;7.80;99.90
8643;DHT22;4359;49.358;11.256;2023-06-01T01:15:20;7.80;99.90
8643;DHT22;4359;49.358;11.256;2023-06-01T01:17:50;7.80;99.90
8643;DHT22;4359;49.358;11.256;2023-06-01T01:20:27;7.80;99.90
8643;DHT22;4359;49.358;11.256;2023-06-01T01:23:19;7.70;99.90
8643;DHT22;4359;49.358;11.256;2023-06-01T01:26:14;7.70;99.90
8643;DHT22;4359;49.358;11.256;2023-06-01T01:28:41;7.60;99.90
8643;DHT22;4359;49.358;11.256;2023-06-01T01:31:11;7.60;99.90
8643;DHT22;4359;49.358;11.256;2023-06-01T01:33:38;7.50;99.90
8643;DHT22;4359;49.358;11.256;2023-06-01T01:36:05;7.70;99.90
8643;DHT22;4359;49.358;11.256;2023-06-01T01:38:35;7.60;99.90
8643;DHT22;4359;49.358;11.256;2023-06-01T01:41:01;7.50;99.90
8643;DHT22;4359;49.358;11.256;2023-06-01T01:43:27;7.40;99.90
8643;DHT22;4359;49.358;11.256;2023-06-01T01:46:00;7.30;99.90
8643;DHT22;4359;49.358;11.256;2023-06-01T01:48:39;7.30;99.90
8643;DHT22;4359;49.358;11.256;2023-06-01T01:51:15;7.30;99.90
8643;DHT22;4359;49.358;11.256;2023-06-01T01:53:41;7.30;99.90
8643;DHT22;4359;49.358;11.256;2023-06-01T01:56:09;7.30;99.90
8643;DHT22;4359;49.358;11.256;2023-06-01T01:58:35;7.40;99.90
8643;DHT22;4359;49.358;11.256;2023-06-01T02:01:01;7.40;99.90
8643;DHT22;4359;49.358;11.256;2023-06-01T02:03:28;7.40;99.90
8643;DHT22;4359;49.358;11.256;2023-06-01T02:05:54;7.30;99.90
8643;DHT22;4359;49.358;11.256;2023-06-01T02:08:19;7.20;99.90
8643;DHT22;4359;49.358;11.256;2023-06-01T02:10:45;7.20;99.90
8643;DHT22;4359;49.358;11.256;2023-06-01T02:13:11;7.10;99.90
8643;DHT22;4359;49.358;11.256;2023-06-01T02:15:37;7.00;99.90
8643;DHT22;4359;49.358;11.256;2023-06-01T02:18:02;7.00;99.90
8643;DHT22;4359;49.358;11.256;2023-06-01T02:20:29;6.90;99.90
8643;DHT22;4359;49.358;11.256;2023-06-01T02:22:54;6.80;99.90
8643;DHT22;4359;49.358;11.256;2023-06-01T02:25:20;6.80;99.90
8643;DHT22;4359;49.358;11.256;2023-06-01T02:27:46;6.70;99.90
8643;DHT22;4359;49.358;11.256;2023-06-01T02:30:11;6.70;99.90
8643;DHT22;4359;49.358;11.256;2023-06-01T02:32:37;6.70;99.90
8643;DHT22;4359;49.358;11.256;2023-06-01T02:35:04;6.70;99.90
8643;DHT22;4359;49.358;11.256;2023-06-01T02:37:31;6.60;99.90
8643;DHT22;4359;49.358;11.256;2023-06-01T02:39:57;6.60;99.90
8643;DHT22;4359;49.358;11.256;2023-06-01T02:42:23;6.70;99.90
8643;DHT22;4359;49.358;11.256;2023-06-01T02:44:48;6.70;99.90
8643;DHT22;4359;49.358;11.256;2023-06-01T02:47:14;6.60;99.90
8643;DHT22;4359;49.358;11.256;2023-06-01T02:49:39;6.50;99.90
8643;DHT22;4359;49.358;11.256;2023-06-01T02:52:06;6.50;99.90
8643;DHT22;4359;49.358;11.256;2023-06-01T02:54:31;6.40;99.90
8643;DHT22;4359;49.358;11.256;2023-06-01T02:56:57;6.30;99.90
8643;DHT22;4359;49.358;11.256;2023-06-01T02:59:22;6.30;99.90
8643;DHT22;4359;49.358;11.256;2023-06-01T03:01:48;6.30;99.90
8643;DHT22;4359;49.358;11.256;2023-06-01T03:04:14;6.30;99.90
8643;DHT22;4359;49.358;11.256;2023-06-01T03:06:40;6.30;99.90
8643;DHT22;4359;49.358;11.256;2023-06-01T03:09:06;6.30;99.90
8643;DHT22;4359;49.358;11.256;2023-06-01T03:11:42;6.20;99.90
8643;DHT22;4359;49.358;11.256;2023-06-01T03:14:08;6.20;99.90
8643;DHT22;4359;49.358;11.256;2023-06-01T03:16:33;6.20;99.90
8643;DHT22;4359;49.358;11.256;2023-06-01T03:19:00;6.10;99.90
8643;DHT22;4359;49.358;11.256;2023-06-01T03:21:26;6.20;99.90
8643;DHT22;4359;49.358;11.256;2023-06-01T03:23:52;6.20;99.90
8643;DHT22;4359;49.358;11.256;2023-06-01T03:26:18;6.20;99.90
8643;DHT22;4359;49.358;11.256;2023-06-01T03:28:46;6.10;99.90
8643;DHT22;4359;49.358;11.256;2023-06-01T03:31:12;6.10;99.90
8643;DHT22;4359;49.358;11.256;2023-06-01T03:33:38;6.20;99.90
8643;DHT22;4359;49.358;11.256;2023-06-01T03:36:04;6.10;99.90
8643;DHT22;4359;49.358;11.256;2023-06-01T03:38:32;6.20;99.90
8643;DHT22;4359;49.358;11.256;2023-06-01T03:40:58;6.20;99.90
8643;DHT22;4359;49.358;11.256;2023-06-01T03:43:23;6.30;99.90
8643;DHT22;4359;49.358;11.256;2023-06-01T03:45:49;6.20;99.90
8643;DHT22;4359;49.358;11.256;2023-06-01T03:48:14;6.20;99.90
8643;DHT22;4359;49.358;11.256;2023-06-01T03:50:40;6.20;99.90
8643;DHT22;4359;49.358;11.256;2023-06-01T03:53:06;6.30;99.90
8643;DHT22;4359;49.358;11.256;2023-06-01T03:55:32;6.30;99.90
8643;DHT22;4359;49.358;11.256;2023-06-01T03:57:58;6.30;99.90
8643;DHT22;4359;49.358;11.256;2023-06-01T04:00:23;6.40;99.90
8643;DHT22;4359;49.358;11.256;2023-06-01T04:02:57;6.40;99.90
8643;DHT22;4359;49.358;11.256;2023-06-01T04:05:25;6.50;99.90
8643;DHT22;4359;49.358;11.256;2023-06-01T04:07:51;6.50;99.90
8643;DHT22;4359;49.358;11.256;2023-06-01T04:10:17;6.60;99.90
8643;DHT22;4359;49.358;11.256;2023-06-01T04:12:44;6.70;99.90
8643;DHT22;4359;49.358;11.256;2023-06-01T04:15:13;6.90;99.90
8643;DHT22;4359;49.358;11.256;2023-06-01T04:17:40;7.00;99.90
8643;DHT22;4359;49.358;11.256;2023-06-01T04:20:11;7.20;99.90
8643;DHT22;4359;49.358;11.256;2023-06-01T04:22:38;7.20;99.90
8643;DHT22;4359;49.358;11.256;2023-06-01T04:25:08;7.40;99.90
8643;DHT22;4359;49.358;11.256;2023-06-01T04:27:35;7.50;99.90
8643;DHT22;4359;49.358;11.256;2023-06-01T04:30:06;7.60;99.90
8643;DHT22;4359;49.358;11.256;2023-06-01T04:32:36;7.80;99.90
8643;DHT22;4359;49.358;11.256;2023-06-01T04:35:04;8.00;99.90
8643;DHT22;4359;49.358;11.256;2023-06-01T04:37:39;8.20;99.90
8643;DHT22;4359;49.358;11.256;2023-06-01T04:40:09;8.30;99.90
8643;DHT22;4359;49.358;11.256;2023-06-01T04:42:40;8.50;99.90
8643;DHT22;4359;49.358;11.256;2023-06-01T04:45:11;8.70;99.90
8643;DHT22;4359;49.358;11.256;2023-06-01T04:47:39;8.80;99.90
8643;DHT22;4359;49.358;11.256;2023-06-01T04:50:09;9.10;99.90
8643;DHT22;4359;49.358;11.256;2023-06-01T04:52:39;9.30;99.90
8643;DHT22;4359;49.358;11.256;2023-06-01T04:55:05;9.40;99.90
8643;DHT22;4359;49.358;11.256;2023-06-01T04:57:33;9.50;99.90
8643;DHT22;4359;49.358;11.256;2023-06-01T05:00:01;9.70;99.90
8643;DHT22;4359;49.358;11.256;2023-06-01T05:02:29;9.90;99.90
8643;DHT22;4359;49.358;11.256;2023-06-01T05:04:55;10.10;99.90
8643;DHT22;4359;49.358;11.256;2023-06-01T05:07:20;10.20;99.90
8643;DHT22;4359;49.358;11.256;2023-06-01T05:09:47;10.50;99.90
8643;DHT22;4359;49.358;11.256;2023-06-01T05:12:13;10.80;99.90
8643;DHT22;4359;49.358;11.256;2023-06-01T05:14:38;11.10;99.90
8643;DHT22;4359;49.358;11.256;2023-06-01T05:17:04;11.30;99.90
8643;DHT22;4359;49.358;11.256;2023-06-01T05:19:30;11.50;99.90
8643;DHT22;4359;49.358;11.256;2023-06-01T05:21:55;11.90;99.90
8643;DHT22;4359;49.358;11.256;2023-06-01T05:24:21;12.00;99.90
8643;DHT22;4359;49.358;11.256;2023-06-01T05:26:47;12.20;99.90
8643;DHT22;4359;49.358;11.256;2023-06-01T05:29:12;12.40;99.90
8643;DHT22;4359;49.358;11.256;2023-06-01T05:31:38;12.60;99.90
8643;DHT22;4359;49.358;11.256;2023-06-01T05:34:03;12.70;99.90
8643;DHT22;4359;49.358;11.256;2023-06-01T05:36:29;12.80;99.90
8643;DHT22;4359;49.358;11.256;2023-06-01T05:38:57;12.90;99.90
8643;DHT22;4359;49.358;11.256;2023-06-01T05:41:23;13.10;99.90
8643;DHT22;4359;49.358;11.256;2023-06-01T05:43:48;13.50;99.90
8643;DHT22;4359;49.358;11.256;2023-06-01T05:46:16;13.80;99.90
8643;DHT22;4359;49.358;11.256;2023-06-01T05:48:41;14.00;99.90
8643;DHT22;4359;49.358;11.256;2023-06-01T05:51:07;14.20;99.90
8643;DHT22;4359;49.358;11.256;2023-06-01T05:53:32;14.30;99.90
8643;DHT22;4359;49.358;11.256;2023-06-01T05:55:58;14.60;99.90
8643;DHT22;4359;49.358;11.256;2023-06-01T05:58:24;14.80;99.90
8643;DHT22;4359;49.358;11.256;2023-06-01T06:00:49;15.00;99.90
8643;DHT22;4359;49.358;11.256;2023-06-01T06:03:15;15.20;99.90
8643;DHT22;4359;49.358;11.256;2023-06-01T06:05:41;15.30;99.90
8643;DHT22;4359;49.358;11.256;2023-06-01T06:08:07;15.50;99.90
8643;DHT22;4359;49.358;11.256;2023-06-01T06:10:32;15.70;99.90
8643;DHT22;4359;49.358;11.256;2023-06-01T06:12:58;15.70;99.90
8643;DHT22;4359;49.358;11.256;2023-06-01T06:15:23;15.90;99.90
8643;DHT22;4359;49.358;11.256;2023-06-01T06:17:49;16.00;99.90
8643;DHT22;4359;49.358;11.256;2023-06-01T06:20:15;16.30;99.90
8643;DHT22;4359;49.358;11.256;2023-06-01T06:22:42;16.40;99.90
8643;DHT22;4359;49.358;11.256;2023-06-01T06:25:08;16.70;99.90
8643;DHT22;4359;49.358;11.256;2023-06-01T06:27:34;17.20;99.90
8643;DHT22;4359;49.358;11.256;2023-06-01T06:30:00;17.60;99.90
8643;DHT22;4359;49.358;11.256;2023-06-01T06:32:26;18.00;99.90
8643;DHT22;4359;49.358;11.256;2023-06-01T06:34:51;18.20;99.90
8643;DHT22;4359;49.358;11.256;2023-06-01T06:37:17;18.40;99.90
8643;DHT22;4359;49.358;11.256;2023-06-01T06:39:43;18.60;99.90
8643;DHT22;4359;49.358;11.256;2023-06-01T06:42:10;18.90;99.90
8643;DHT22;4359;49.358;11.256;2023-06-01T06:44:35;19.10;99.90
8643;DHT22;4359;49.358;11.256;2023-06-01T06:47:01;19.30;99.90
8643;DHT22;4359;49.358;11.256;2023-06-01T06:49:27;19.30;99.90
8643;DHT22;4359;49.358;11.256;2023-06-01T06:51:53;19.40;99.90
8643;DHT22;4359;49.358;11.256;2023-06-01T06:54:18;19.30;99.90
8643;DHT22;4359;49.358;11.256;2023-06-01T06:56:44;19.30;99.90
8643;DHT22;4359;49.358;11.256;2023-06-01T06:59:10;19.30;99.90
8643;DHT22;4359;49.358;11.256;2023-06-01T07:01:36;19.50;99.90
8643;DHT22;4359;49.358;11.256;2023-06-01T07:04:04;19.70;99.90
8643;DHT22;4359;49.358;11.256;2023-06-01T07:06:31;20.30;99.90
8643;DHT22;4359;49.358;11.256;2023-06-01T07:08:58;20.90;99.90
8643;DHT22;4359;49.358;11.256;2023-06-01T07:11:23;21.30;99.90
8643;DHT22;4359;49.358;11.256;2023-06-01T07:13:49;21.20;99.90
8643;DHT22;4359;49.358;11.256;2023-06-01T07:16:15;21.20;99.90
8643;DHT22;4359;49.358;11.256;2023-06-01T07:18:41;21.30;99.90
8643;DHT22;4359;49.358;11.256;2023-06-01T07:21:07;21.50;99.90
8643;DHT22;4359;49.358;11.256;2023-06-01T07:23:32;21.50;99.90
8643;DHT22;4359;49.358;11.256;2023-06-01T07:25:58;21.60;99.90
8643;DHT22;4359;49.358;11.256;2023-06-01T07:28:24;21.60;99.90
8643;DHT22;4359;49.358;11.256;2023-06-01T07:30:52;21.80;99.90
8643;DHT22;4359;49.358;11.256;2023-06-01T07:33:18;21.80;99.90
8643;DHT22;4359;49.358;11.256;2023-06-01T07:35:44;22.00;99.90
8643;DHT22;4359;49.358;11.256;2023-06-01T07:38:11;22.40;99.90
8643;DHT22;4359;49.358;11.256;2023-06-01T07:40:36;22.70;99.90
8643;DHT22;4359;49.358;11.256;2023-06-01T07:43:02;23.40;99.90
8643;DHT22;4359;49.358;11.256;2023-06-01T07:45:28;24.30;99.90
8643;DHT22;4359;49.358;11.256;2023-06-01T07:47:53;24.70;99.90
8643;DHT22;4359;49.358;11.256;2023-06-01T07:50:19;24.30;99.90
8643;DHT22;4359;49.358;11.256;2023-06-01T07:52:45;24.30;99.90
8643;DHT22;4359;49.358;11.256;2023-06-01T07:55:11;24.50;99.90
8643;DHT22;4359;49.358;11.256;2023-06-01T07:57:36;25.20;97.70
8643;DHT22;4359;49.358;11.256;2023-06-01T08:00:06;25.90;98.60
8643;DHT22;4359;49.358;11.256;2023-06-01T08:02:35;26.40;94.10
8643;DHT22;4359;49.358;11.256;2023-06-01T08:05:02;26.30;95.50
8643;DHT22;4359;49.358;11.256;2023-06-01T08:07:28;26.50;93.30
8643;DHT22;4359;49.358;11.256;2023-06-01T08:09:55;26.00;91.90
8643;DHT22;4359;49.358;11.256;2023-06-01T08:12:21;26.00;92.20
8643;DHT22;4359;49.358;11.256;2023-06-01T08:14:47;26.00;92.40
8643;DHT22;4359;49.358;11.256;2023-06-01T08:17:13;26.30;92.80
8643;DHT22;4359;49.358;11.256;2023-06-01T08:19:40;26.50;92.40
8643;DHT22;4359;49.358;11.256;2023-06-01T08:22:07;26.80;92.80
8643;DHT22;4359;49.358;11.256;2023-06-01T08:24:33;27.00;89.00
8643;DHT22;4359;49.358;11.256;2023-06-01T08:26:59;26.70;90.50
8643;DHT22;4359;49.358;11.256;2023-06-01T08:29:26;26.60;88.00
8643;DHT22;4359;49.358;11.256;2023-06-01T08:31:52;26.10;87.10
8643;DHT22;4359;49.358;11.256;2023-06-01T08:34:18;25.70;90.00
8643;DHT22;4359;49.358;11.256;2023-06-01T08:36:45;25.90;84.90
8643;DHT22;4359;49.358;11.256;2023-06-01T08:39:21;26.00;88.50
8643;DHT22;4359;49.358;11.256;2023-06-01T08:44:23;26.00;86.00
8643;DHT22;4359;49.358;11.256;2023-06-01T08:46:53;26.00;86.50
8643;DHT22;4359;49.358;11.256;2023-06-01T08:49:19;26.30;90.70
8643;DHT22;4359;49.358;11.256;2023-06-01T08:51:48;26.90;83.70
8643;DHT22;4359;49.358;11.256;2023-06-01T08:54:14;27.30;83.40
8643;DHT22;4359;49.358;11.256;2023-06-01T08:56:40;27.40;82.30
8643;DHT22;4359;49.358;11.256;2023-06-01T08:59:10;27.30;81.10
8643;DHT22;4359;49.358;11.256;2023-06-01T09:01:37;27.00;84.60
8643;DHT22;4359;49.358;11.256;2023-06-01T09:04:03;27.20;82.10
8643;DHT22;4359;49.358;11.256;2023-06-01T09:06:29;27.10;85.80
8643;DHT22;4359;49.358;11.256;2023-06-01T09:08:55;27.20;84.30
8643;DHT22;4359;49.358;11.256;2023-06-01T09:11:21;27.20;87.00
8643;DHT22;4359;49.358;11.256;2023-06-01T09:13:47;27.20;84.00
8643;DHT22;4359;49.358;11.256;2023-06-01T09:16:13;27.50;84.20
8643;DHT22;4359;49.358;11.256;2023-06-01T09:18:59;27.50;79.50
8643;DHT22;4359;49.358;11.256;2023-06-01T09:21:25;27.70;83.20
8643;DHT22;4359;49.358;11.256;2023-06-01T09:23:51;27.80;82.10
8643;DHT22;4359;49.358;11.256;2023-06-01T09:26:17;27.80;76.70
8643;DHT22;4359;49.358;11.256;2023-06-01T09:28:52;27.90;78.90
8643;DHT22;4359;49.358;11.256;2023-06-01T09:31:41;27.80;78.20
8643;DHT22;4359;49.358;11.256;2023-06-01T09:34:08;28.00;77.00
8643;DHT22;4359;49.358;11.256;2023-06-01T09:36:34;28.30;79.50
8643;DHT22;4359;49.358;11.256;2023-06-01T09:39:06;28.10;77.00
8643;DHT22;4359;49.358;11.256;2023-06-01T09:44:11;28.30;78.30
8643;DHT22;4359;49.358;11.256;2023-06-01T09:46:52;28.50;75.00
8643;DHT22;4359;49.358;11.256;2023-06-01T09:49:19;28.60;73.00
8643;DHT22;4359;49.358;11.256;2023-06-01T09:51:46;28.70;76.00
8643;DHT22;4359;49.358;11.256;2023-06-01T09:54:26;29.00;73.20
8643;DHT22;4359;49.358;11.256;2023-06-01T09:56:53;29.20;73.00
8643;DHT22;4359;49.358;11.256;2023-06-01T09:59:21;28.90;74.00
8643;DHT22;4359;49.358;11.256;2023-06-01T10:01:55;28.50;71.90
8643;DHT22;4359;49.358;11.256;2023-06-01T10:04:23;28.90;73.70
8643;DHT22;4359;49.358;11.256;2023-06-01T10:06:50;29.00;69.70
8643;DHT22;4359;49.358;11.256;2023-06-01T10:09:21;28.50;72.90
8643;DHT22;4359;49.358;11.256;2023-06-01T10:11:48;28.20;73.70
8643;DHT22;4359;49.358;11.256;2023-06-01T10:14:17;28.60;73.20
8643;DHT22;4359;49.358;11.256;2023-06-01T10:16:43;29.50;72.50
8643;DHT22;4359;49.358;11.256;2023-06-01T10:19:10;29.70;66.30
8643;DHT22;4359;49.358;11.256;2023-06-01T10:21:37;29.70;68.50
8643;DHT22;4359;49.358;11.256;2023-06-01T10:24:04;29.60;67.20
8643;DHT22;4359;49.358;11.256;2023-06-01T10:26:35;29.50;63.60
8643;DHT22;4359;49.358;11.256;2023-06-01T10:29:01;29.40;67.80
8643;DHT22;4359;49.358;11.256;2023-06-01T10:31:41;29.30;64.70
8643;DHT22;4359;49.358;11.256;2023-06-01T10:34:09;29.50;69.10
8643;DHT22;4359;49.358;11.256;2023-06-01T10:39:26;30.20;66.70
8643;DHT22;4359;49.358;11.256;2023-06-01T10:41:57;30.20;69.20
8643;DHT22;4359;49.358;11.256;2023-06-01T10:50:08;30.70;63.30
8643;DHT22;4359;49.358;11.256;2023-06-01T10:52:35;30.40;62.70
8643;DHT22;4359;49.358;11.256;2023-06-01T10:57:33;30.00;66.60
8643;DHT22;4359;49.358;11.256;2023-06-01T11:00:12;30.00;65.80
8643;DHT22;4359;49.358;11.256;2023-06-01T11:02:57;29.70;67.90
8643;DHT22;4359;49.358;11.256;2023-06-01T11:05:44;29.90;67.90
8643;DHT22;4359;49.358;11.256;2023-06-01T11:13:22;29.20;67.90
8643;DHT22;4359;49.358;11.256;2023-06-01T11:18:52;30.00;65.00
8643;DHT22;4359;49.358;11.256;2023-06-01T11:21:31;30.10;65.50
8643;DHT22;4359;49.358;11.256;2023-06-01T11:23:59;29.30;70.70
8643;DHT22;4359;49.358;11.256;2023-06-01T11:26:42;29.60;67.60
8643;DHT22;4359;49.358;11.256;2023-06-01T11:29:15;29.50;66.60
8643;DHT22;4359;49.358;11.256;2023-06-01T11:31:59;28.60;68.00
8643;DHT22;4359;49.358;11.256;2023-06-01T11:34:39;28.60;70.60
8643;DHT22;4359;49.358;11.256;2023-06-01T11:37:13;28.10;69.50
8643;DHT22;4359;49.358;11.256;2023-06-01T11:39:40;28.50;71.10
8643;DHT22;4359;49.358;11.256;2023-06-01T11:42:13;28.60;72.10
8643;DHT22;4359;49.358;11.256;2023-06-01T11:44:42;28.80;66.00
8643;DHT22;4359;49.358;11.256;2023-06-01T11:47:09;28.40;66.00
8643;DHT22;4359;49.358;11.256;2023-06-01T11:49:47;28.50;68.10
8643;DHT22;4359;49.358;11.256;2023-06-01T11:52:17;28.20;69.80
8643;DHT22;4359;49.358;11.256;2023-06-01T11:54:44;27.90;69.80
8643;DHT22;4359;49.358;11.256;2023-06-01T11:57:09;28.00;71.90
8643;DHT22;4359;49.358;11.256;2023-06-01T11:59:43;28.00;69.80
8643;DHT22;4359;49.358;11.256;2023-06-01T12:02:26;27.90;71.50
8643;DHT22;4359;49.358;11.256;2023-06-01T12:05:00;28.50;73.20
8643;DHT22;4359;49.358;11.256;2023-06-01T12:07:28;29.40;73.10
8643;DHT22;4359;49.358;11.256;2023-06-01T12:09:54;30.00;69.30
8643;DHT22;4359;49.358;11.256;2023-06-01T12:12:24;30.20;69.20
8643;DHT22;4359;49.358;11.256;2023-06-01T12:14:50;29.90;66.40
8643;DHT22;4359;49.358;11.256;2023-06-01T12:17:17;29.70;69.30
8643;DHT22;4359;49.358;11.256;2023-06-01T12:19:47;29.40;67.90
8643;DHT22;4359;49.358;11.256;2023-06-01T12:22:13;29.60;67.10
8643;DHT22;4359;49.358;11.256;2023-06-01T12:24:41;30.30;64.90
8643;DHT22;4359;49.358;11.256;2023-06-01T12:27:17;30.70;64.80
8643;DHT22;4359;49.358;11.256;2023-06-01T12:29:47;30.90;67.30
8643;DHT22;4359;49.358;11.256;2023-06-01T12:32:14;31.20;63.70
8643;DHT22;4359;49.358;11.256;2023-06-01T12:34:43;31.20;71.60
8643;DHT22;4359;49.358;11.256;2023-06-01T12:37:19;31.10;65.50
8643;DHT22;4359;49.358;11.256;2023-06-01T12:39:52;30.80;66.70
8643;DHT22;4359;49.358;11.256;2023-06-01T12:42:19;30.40;68.10
8643;DHT22;4359;49.358;11.256;2023-06-01T12:44:52;30.30;64.80
8643;DHT22;4359;49.358;11.256;2023-06-01T12:47:18;29.60;64.10
8643;DHT22;4359;49.358;11.256;2023-06-01T12:50:05;29.30;65.50
8643;DHT22;4359;49.358;11.256;2023-06-01T12:52:31;29.40;69.60
8643;DHT22;4359;49.358;11.256;2023-06-01T12:54:57;29.60;70.50
8643;DHT22;4359;49.358;11.256;2023-06-01T12:57:22;29.90;65.60
8643;DHT22;4359;49.358;11.256;2023-06-01T12:59:48;30.10;71.60
8643;DHT22;4359;49.358;11.256;2023-06-01T13:02:14;30.00;66.10
8643;DHT22;4359;49.358;11.256;2023-06-01T13:04:41;29.40;66.70
8643;DHT22;4359;49.358;11.256;2023-06-01T13:07:07;29.50;69.00
8643;DHT22;4359;49.358;11.256;2023-06-01T13:09:33;29.90;72.00
8643;DHT22;4359;49.358;11.256;2023-06-01T13:11:59;30.10;66.80
8643;DHT22;4359;49.358;11.256;2023-06-01T13:14:24;30.60;69.60
8643;DHT22;4359;49.358;11.256;2023-06-01T13:16:51;30.90;68.90
8643;DHT22;4359;49.358;11.256;2023-06-01T13:19:17;30.80;64.20
8643;DHT22;4359;49.358;11.256;2023-06-01T13:21:42;30.70;71.20
8643;DHT22;4359;49.358;11.256;2023-06-01T13:24:08;30.70;65.60
8643;DHT22;4359;49.358;11.256;2023-06-01T13:26:36;31.30;64.50
8643;DHT22;4359;49.358;11.256;2023-06-01T13:29:02;30.90;60.90
8643;DHT22;4359;49.358;11.256;2023-06-01T13:31:32;30.60;65.50
8643;DHT22;4359;49.358;11.256;2023-06-01T13:33:58;30.30;69.90
8643;DHT22;4359;49.358;11.256;2023-06-01T13:36:24;30.30;66.10
8643;DHT22;4359;49.358;11.256;2023-06-01T13:38:50;30.50;64.00
8643;DHT22;4359;49.358;11.256;2023-06-01T13:41:15;30.90;62.90
8643;DHT22;4359;49.358;11.256;2023-06-01T13:43:41;31.00;60.80
8643;DHT22;4359;49.358;11.256;2023-06-01T13:46:07;30.30;62.50
8643;DHT22;4359;49.358;11.256;2023-06-01T13:48:35;30.30;63.50
8643;DHT22;4359;49.358;11.256;2023-06-01T13:51:01;30.10;63.30
8643;DHT22;4359;49.358;11.256;2023-06-01T13:53:27;30.20;63.30
8643;DHT22;4359;49.358;11.256;2023-06-01T13:55:52;29.90;61.90
8643;DHT22;4359;49.358;11.256;2023-06-01T13:58:19;30.40;62.80
8643;DHT22;4359;49.358;11.256;2023-06-01T14:00:45;30.70;65.10
8643;DHT22;4359;49.358;11.256;2023-06-01T14:03:10;30.30;62.00
8643;DHT22;4359;49.358;11.256;2023-06-01T14:05:36;30.40;62.30
8643;DHT22;4359;49.358;11.256;2023-06-01T14:08:02;30.40;64.60
8643;DHT22;4359;49.358;11.256;2023-06-01T14:10:30;30.40;63.80
8643;DHT22;4359;49.358;11.256;2023-06-01T14:12:56;30.10;62.80
8643;DHT22;4359;49.358;11.256;2023-06-01T14:15:22;30.10;64.30
8643;DHT22;4359;49.358;11.256;2023-06-01T14:17:48;30.30;63.10
8643;DHT22;4359;49.358;11.256;2023-06-01T14:20:15;30.50;65.30
8643;DHT22;4359;49.358;11.256;2023-06-01T14:22:41;30.70;68.90
8643;DHT22;4359;49.358;11.256;2023-06-01T14:25:07;31.10;62.90
8643;DHT22;4359;49.358;11.256;2023-06-01T14:27:34;31.30;62.90
8643;DHT22;4359;49.358;11.256;2023-06-01T14:30:01;31.70;65.50
8643;DHT22;4359;49.358;11.256;2023-06-01T14:32:28;32.00;63.10
8643;DHT22;4359;49.358;11.256;2023-06-01T14:34:54;31.50;61.20
8643;DHT22;4359;49.358;11.256;2023-06-01T14:37:20;31.70;62.10
8643;DHT22;4359;49.358;11.256;2023-06-01T14:39:46;31.80;62.10
8643;DHT22;4359;49.358;11.256;2023-06-01T14:42:12;31.90;64.20
8643;DHT22;4359;49.358;11.256;2023-06-01T14:44:37;32.20;60.90
8643;DHT22;4359;49.358;11.256;2023-06-01T14:47:03;31.60;65.80
8643;DHT22;4359;49.358;11.256;2023-06-01T14:49:29;31.60;62.50
8643;DHT22;4359;49.358;11.256;2023-06-01T14:51:55;31.80;63.20
8643;DHT22;4359;49.358;11.256;2023-06-01T14:54:20;31.70;62.50
8643;DHT22;4359;49.358;11.256;2023-06-01T14:56:46;31.30;64.90
8643;DHT22;4359;49.358;11.256;2023-06-01T14:59:12;30.60;63.50
8643;DHT22;4359;49.358;11.256;2023-06-01T15:01:37;30.40;63.10
8643;DHT22;4359;49.358;11.256;2023-06-01T15:04:06;30.70;63.70
8643;DHT22;4359;49.358;11.256;2023-06-01T15:06:32;30.30;62.90
8643;DHT22;4359;49.358;11.256;2023-06-01T15:08:57;29.80;65.40
8643;DHT22;4359;49.358;11.256;2023-06-01T15:11:23;29.80;66.20
8643;DHT22;4359;49.358;11.256;2023-06-01T15:13:49;29.70;67.50
8643;DHT22;4359;49.358;11.256;2023-06-01T15:16:18;29.70;65.80
8643;DHT22;4359;49.358;11.256;2023-06-01T15:18:43;29.50;64.40
8643;DHT22;4359;49.358;11.256;2023-06-01T15:21:09;29.60;66.20
8643;DHT22;4359;49.358;11.256;2023-06-01T15:23:34;30.00;65.00
8643;DHT22;4359;49.358;11.256;2023-06-01T15:26:00;29.90;66.20
8643;DHT22;4359;49.358;11.256;2023-06-01T15:28:26;30.20;64.90
8643;DHT22;4359;49.358;11.256;2023-06-01T15:30:52;29.90;64.20
8643;DHT22;4359;49.358;11.256;2023-06-01T15:33:18;30.00;64.90
8643;DHT22;4359;49.358;11.256;2023-06-01T15:35:43;29.80;63.30
8643;DHT22;4359;49.358;11.256;2023-06-01T15:38:09;29.10;63.10
8643;DHT22;4359;49.358;11.256;2023-06-01T15:40:35;28.60;65.70
8643;DHT22;4359;49.358;11.256;2023-06-01T15:43:01;28.30;67.30
8643;DHT22;4359;49.358;11.256;2023-06-01T15:45:26;27.80;67.60
8643;DHT22;4359;49.358;11.256;2023-06-01T15:47:52;27.50;67.60
8643;DHT22;4359;49.358;11.256;2023-06-01T15:50:18;27.50;67.90
8643;DHT22;4359;49.358;11.256;2023-06-01T15:52:43;27.60;68.80
8643;DHT22;4359;49.358;11.256;2023-06-01T15:55:09;27.60;68.30
8643;DHT22;4359;49.358;11.256;2023-06-01T15:57:35;27.50;68.40
8643;DHT22;4359;49.358;11.256;2023-06-01T16:00:01;27.40;69.90
8643;DHT22;4359;49.358;11.256;2023-06-01T16:02:26;27.30;68.50
8643;DHT22;4359;49.358;11.256;2023-06-01T16:04:52;27.30;69.10
8643;DHT22;4359;49.358;11.256;2023-06-01T16:07:18;27.40;70.10
8643;DHT22;4359;49.358;11.256;2023-06-01T16:09:43;27.50;69.80
8643;DHT22;4359;49.358;11.256;2023-06-01T16:12:09;27.40;70.60
8643;DHT22;4359;49.358;11.256;2023-06-01T16:14:34;27.10;68.30
8643;DHT22;4359;49.358;11.256;2023-06-01T16:17:01;27.40;69.80